sensor_id;sensor_type;location;lat;lon;timestamp;pressure;altitude;pressure_sealevel;temperature;humidity
65758;BME280;52495;52.208;5.158;2023-05-11T00:00:34;101387.44;;;13.66;100.00
65758;BME280;52495;52.208;5.158;2023-05-11T00:03:01;101384.91;;;13.65;100.00
65758;BME280;52495;52.208;5.158;2023-05-11T00:05:27;101382.25;;;13.66;100.00
65758;BME280;52495;52.208;5.158;2023-05-11T00:07:54;101376.22;;;13.66;100.00
65758;BME280;52495;52.208;5.158;2023-05-11T00:10:21;101379.66;;;13.66;100.00
65758;BME280;52495;52.208;5.158;2023-05-11T00:12:48;101378.81;;;13.66;100.00
65758;BME280;52495;52.208;5.158;2023-05-11T00:15:14;101384.81;;;13.68;100.00
65758;BME280;52495;52.208;5.158;2023-05-11T00:17:43;101378.81;;;13.66;100.00
65758;BME280;52495;52.208;5.158;2023-05-11T00:20:10;101378.78;;;13.68;100.00
65758;BME280;52495;52.208;5.158;2023-05-11T00:22:37;101380.50;;;13.69;100.00
65758;BME280;52495;52.208;5.158;2023-05-11T00:25:04;101377.97;;;13.65;100.00
65758;BME280;52495;52.208;5.158;2023-05-11T00:27:31;101378.84;;;13.64;100.00
65758;BME280;52495;52.208;5.158;2023-05-11T00:29:58;101376.28;;;13.63;100.00
65758;BME280;52495;52.208;5.158;2023-05-11T00:32:25;101372.81;;;13.64;100.00
65758;BME280;52495;52.208;5.158;2023-05-11T00:34:53;101372.00;;;13.62;100.00
65758;BME280;52495;52.208;5.158;2023-05-11T00:37:19;101355.59;;;13.60;100.00
65758;BME280;52495;52.208;5.158;2023-05-11T00:39:46;101364.31;;;13.56;100.00
65758;BME280;52495;52.208;5.158;2023-05-11T00:42:13;101361.78;;;13.54;100.00
65758;BME280;52495;52.208;5.158;2023-05-11T00:44:40;101356.94;;;13.35;100.00
65758;BME280;52495;52.208;5.158;2023-05-11T00:47:07;101353.34;;;13.43;100.00
65758;BME280;52495;52.208;5.158;2023-05-11T00:49:34;101356.75;;;13.46;100.00
65758;BME280;52495;52.208;5.158;2023-05-11T00:52:03;101357.69;;;13.42;100.00
65758;BME280;52495;52.208;5.158;2023-05-11T00:54:30;101359.41;;;13.43;100.00
65758;BME280;52495;52.208;5.158;2023-05-11T00:56:57;101369.75;;;13.45;100.00
65758;BME280;52495;52.208;5.158;2023-05-11T00:59:23;101374.97;;;13.43;100.00
65758;BME280;52495;52.208;5.158;2023-05-11T01:01:50;101364.50;;;13.48;100.00
65758;BME280;52495;52.208;5.158;2023-05-11T01:04:17;101373.91;;;13.52;100.00
65758;BME280;52495;52.208;5.158;2023-05-11T01:06:51;101371.28;;;13.54;100.00
65758;BME280;52495;52.208;5.158;2023-05-11T01:09:31;101380.75;;;13.56;100.00
65758;BME280;52495;52.208;5.158;2023-05-11T01:12:09;101378.97;;;13.58;100.00
65758;BME280;52495;52.208;5.158;2023-05-11T01:14:41;101377.25;;;13.59;100.00
65758;BME280;52495;52.208;5.158;2023-05-11T01:17:18;101388.50;;;13.58;100.00
65758;BME280;52495;52.208;5.158;2023-05-11T01:19:53;101381.66;;;13.55;100.00
65758;BME280;52495;52.208;5.158;2023-05-11T01:22:33;101379.94;;;13.53;100.00
65758;BME280;52495;52.208;5.158;2023-05-11T01:25:20;101374.97;;;13.43;100.00
65758;BME280;52495;52.208;5.158;2023-05-11T01:28:12;101372.38;;;13.42;100.00
65758;BME280;52495;52.208;5.158;2023-05-11T01:30:47;101364.72;;;13.34;100.00
65758;BME280;52495;52.208;5.158;2023-05-11T01:33:15;101370.75;;;13.36;100.00
65758;BME280;52495;52.208;5.158;2023-05-11T01:35:47;101370.22;;;13.20;100.00
65758;BME280;52495;52.208;5.158;2023-05-11T01:38:18;101366.69;;;13.23;100.00
65758;BME280;52495;52.208;5.158;2023-05-11T01:40:51;101372.59;;;13.29;100.00
65758;BME280;52495;52.208;5.158;2023-05-11T01:43:22;101375.09;;;13.34;100.00
65758;BME280;52495;52.208;5.158;2023-05-11T01:45:56;101369.84;;;13.39;100.00
65758;BME280;52495;52.208;5.158;2023-05-11T01:48:27;101372.22;;;13.51;100.00
65758;BME280;52495;52.208;5.158;2023-05-11T01:50:55;101360.22;;;13.45;100.00
65758;BME280;52495;52.208;5.158;2023-05-11T01:53:26;101366.34;;;13.41;100.00
65758;BME280;52495;52.208;5.158;2023-05-11T01:55:57;101366.53;;;13.32;100.00
65758;BME280;52495;52.208;5.158;2023-05-11T01:58:26;101368.25;;;13.31;100.00
65758;BME280;52495;52.208;5.158;2023-05-11T02:00:55;101367.56;;;13.23;100.00
65758;BME280;52495;52.208;5.158;2023-05-11T02:03:25;101371.09;;;13.17;100.00
65758;BME280;52495;52.208;5.158;2023-05-11T02:05:54;101371.94;;;13.19;100.00
65758;BME280;52495;52.208;5.158;2023-05-11T02:08:24;101381.41;;;13.22;100.00
65758;BME280;52495;52.208;5.158;2023-05-11T02:10:53;101386.50;;;13.27;100.00
65758;BME280;52495;52.208;5.158;2023-05-11T02:13:21;101381.22;;;13.31;100.00
65758;BME280;52495;52.208;5.158;2023-05-11T02:15:50;101388.06;;;13.34;100.00
65758;BME280;52495;52.208;5.158;2023-05-11T02:18:20;101381.94;;;13.38;100.00
65758;BME280;52495;52.208;5.158;2023-05-11T02:20:55;101392.25;;;13.43;100.00
65758;BME280;52495;52.208;5.158;2023-05-11T02:23:24;101387.00;;;13.47;100.00
65758;BME280;52495;52.208;5.158;2023-05-11T02:25:53;101386.91;;;13.50;100.00
65758;BME280;52495;52.208;5.158;2023-05-11T02:28:21;101390.31;;;13.53;100.00
65758;BME280;52495;52.208;5.158;2023-05-11T02:30:51;101397.28;;;13.52;100.00
65758;BME280;52495;52.208;5.158;2023-05-11T02:33:25;101394.69;;;13.52;100.00
65758;BME280;52495;52.208;5.158;2023-05-11T02:35:54;101393.81;;;13.51;100.00
65758;BME280;52495;52.208;5.158;2023-05-11T02:38:29;101392.09;;;13.52;100.00
65758;BME280;52495;52.208;5.158;2023-05-11T02:41:01;101389.50;;;13.50;100.00
65758;BME280;52495;52.208;5.158;2023-05-11T02:43:32;101387.78;;;13.51;100.00
65758;BME280;52495;52.208;5.158;2023-05-11T02:46:03;101392.09;;;13.50;100.00
65758;BME280;52495;52.208;5.158;2023-05-11T02:48:39;101398.16;;;13.51;100.00
65758;BME280;52495;52.208;5.158;2023-05-11T02:51:11;101387.88;;;13.46;100.00
65758;BME280;52495;52.208;5.158;2023-05-11T02:53:44;101397.38;;;13.46;100.00
65758;BME280;52495;52.208;5.158;2023-05-11T02:56:13;101395.72;;;13.42;100.00
65758;BME280;52495;52.208;5.158;2023-05-11T02:58:40;101389.72;;;13.40;100.00
65758;BME280;52495;52.208;5.158;2023-05-11T03:01:23;101393.13;;;13.42;100.00
65758;BME280;52495;52.208;5.158;2023-05-11T03:03:51;101394.84;;;13.43;100.00
65758;BME280;52495;52.208;5.158;2023-05-11T03:06:18;101392.28;;;13.41;100.00
65758;BME280;52495;52.208;5.158;2023-05-11T03:08:45;101393.13;;;13.43;100.00
65758;BME280;52495;52.208;5.158;2023-05-11T03:11:12;101383.63;;;13.42;100.00
65758;BME280;52495;52.208;5.158;2023-05-11T03:13:40;101384.47;;;13.43;100.00
65758;BME280;52495;52.208;5.158;2023-05-11T03:16:08;101387.94;;;13.43;100.00
65758;BME280;52495;52.208;5.158;2023-05-11T03:18:37;101392.28;;;13.41;100.00
65758;BME280;52495;52.208;5.158;2023-05-11T03:21:06;101393.19;;;13.39;100.00
65758;BME280;52495;52.208;5.158;2023-05-11T03:23:34;101393.25;;;13.35;100.00
65758;BME280;52495;52.208;5.158;2023-05-11T03:26:01;101393.31;;;13.32;100.00
65758;BME280;52495;52.208;5.158;2023-05-11T03:28:28;101391.63;;;13.30;100.00
65758;BME280;52495;52.208;5.158;2023-05-11T03:31:03;101386.50;;;13.27;100.00
65758;BME280;52495;52.208;5.158;2023-05-11T03:33:31;101387.38;;;13.26;100.00
65758;BME280;52495;52.208;5.158;2023-05-11T03:35:59;101383.09;;;13.25;100.00
65758;BME280;52495;52.208;5.158;2023-05-11T03:38:31;101383.91;;;13.27;100.00
65758;BME280;52495;52.208;5.158;2023-05-11T03:41:00;101377.84;;;13.28;100.00
65758;BME280;52495;52.208;5.158;2023-05-11T03:43:31;101376.13;;;13.27;100.00
65758;BME280;52495;52.208;5.158;2023-05-11T03:46:00;101373.59;;;13.24;100.00
65758;BME280;52495;52.208;5.158;2023-05-11T03:48:29;101379.66;;;13.23;100.00
65758;BME280;52495;52.208;5.158;2023-05-11T03:50:56;101375.47;;;13.17;100.00
65758;BME280;52495;52.208;5.158;2023-05-11T03:53:24;101377.25;;;13.13;100.00
65758;BME280;52495;52.208;5.158;2023-05-11T03:55:52;101373.03;;;13.08;100.00
65758;BME280;52495;52.208;5.158;2023-05-11T03:58:19;101373.00;;;13.09;100.00
65758;BME280;52495;52.208;5.158;2023-05-11T04:00:47;101376.44;;;13.11;100.00
65758;BME280;52495;52.208;5.158;2023-05-11T04:03:14;101378.22;;;13.08;100.00
65758;BME280;52495;52.208;5.158;2023-05-11T04:05:41;101371.34;;;13.05;100.00
65758;BME280;52495;52.208;5.158;2023-05-11T04:08:10;101373.81;;;13.13;100.00
65758;BME280;52495;52.208;5.158;2023-05-11T04:10:38;101372.00;;;13.16;100.00
65758;BME280;52495;52.208;5.158;2023-05-11T04:13:06;101367.69;;;13.15;100.00
65758;BME280;52495;52.208;5.158;2023-05-11T04:15:33;101365.88;;;13.20;100.00
65758;BME280;52495;52.208;5.158;2023-05-11T04:18:02;101368.47;;;13.20;100.00
65758;BME280;52495;52.208;5.158;2023-05-11T04:20:30;101373.75;;;13.16;100.00
65758;BME280;52495;52.208;5.158;2023-05-11T04:22:58;101371.94;;;13.19;100.00
65758;BME280;52495;52.208;5.158;2023-05-11T04:25:25;101376.25;;;13.20;100.00
65758;BME280;52495;52.208;5.158;2023-05-11T04:27:52;101377.03;;;13.24;100.00
65758;BME280;52495;52.208;5.158;2023-05-11T04:30:20;101386.50;;;13.27;100.00
65758;BME280;52495;52.208;5.158;2023-05-11T04:32:47;101376.97;;;13.27;100.00
65758;BME280;52495;52.208;5.158;2023-05-11T04:35:14;101390.75;;;13.31;100.00
65758;BME280;52495;52.208;5.158;2023-05-11T04:37:41;101382.88;;;13.34;100.00
65758;BME280;52495;52.208;5.158;2023-05-11T04:40:09;101388.13;;;13.32;100.00
65758;BME280;52495;52.208;5.158;2023-05-11T04:42:39;101388.94;;;13.33;100.00
65758;BME280;52495;52.208;5.158;2023-05-11T04:45:10;101386.38;;;13.33;100.00
65758;BME280;52495;52.208;5.158;2023-05-11T04:47:38;101381.16;;;13.33;100.00
65758;BME280;52495;52.208;5.158;2023-05-11T04:50:07;101390.66;;;13.35;100.00
65758;BME280;52495;52.208;5.158;2023-05-11T04:52:34;101393.19;;;13.39;100.00
65758;BME280;52495;52.208;5.158;2023-05-11T04:55:02;101396.56;;;13.44;100.00
65758;BME280;52495;52.208;5.158;2023-05-11T04:57:29;101393.94;;;13.45;100.00
65758;BME280;52495;52.208;5.158;2023-05-11T04:59:56;101399.09;;;13.48;100.00
65758;BME280;52495;52.208;5.158;2023-05-11T05:02:23;101397.38;;;13.47;100.00
65758;BME280;52495;52.208;5.158;2023-05-11T05:04:51;101404.28;;;13.48;100.00
65758;BME280;52495;52.208;5.158;2023-05-11T05:07:19;101405.16;;;13.46;100.00
65758;BME280;52495;52.208;5.158;2023-05-11T05:09:46;101405.16;;;13.46;100.00
65758;BME280;52495;52.208;5.158;2023-05-11T05:12:14;101407.81;;;13.43;100.00
65758;BME280;52495;52.208;5.158;2023-05-11T05:14:41;101411.28;;;13.42;100.00
65758;BME280;52495;52.208;5.158;2023-05-11T05:17:08;101417.34;;;13.42;100.00
65758;BME280;52495;52.208;5.158;2023-05-11T05:19:35;101416.47;;;13.42;100.00
65758;BME280;52495;52.208;5.158;2023-05-11T05:22:03;101413.06;;;13.40;100.00
65758;BME280;52495;52.208;5.158;2023-05-11T05:24:30;101415.66;;;13.41;100.00
65758;BME280;52495;52.208;5.158;2023-05-11T05:26:57;101410.44;;;13.41;100.00
65758;BME280;52495;52.208;5.158;2023-05-11T05:29:25;101411.25;;;13.45;100.00
65758;BME280;52495;52.208;5.158;2023-05-11T05:31:52;101421.56;;;13.48;100.00
65758;BME280;52495;52.208;5.158;2023-05-11T05:34:18;101421.56;;;13.48;100.00
65758;BME280;52495;52.208;5.158;2023-05-11T05:36:46;101429.25;;;13.53;100.00
65758;BME280;52495;52.208;5.158;2023-05-11T05:39:14;101421.47;;;13.53;100.00
65758;BME280;52495;52.208;5.158;2023-05-11T05:41:42;101422.34;;;13.53;100.00
65758;BME280;52495;52.208;5.158;2023-05-11T05:44:09;101430.06;;;13.55;100.00
65758;BME280;52495;52.208;5.158;2023-05-11T05:46:37;101436.09;;;13.57;100.00
65758;BME280;52495;52.208;5.158;2023-05-11T05:49:04;101435.97;;;13.61;100.00
65758;BME280;52495;52.208;5.158;2023-05-11T05:51:31;101438.50;;;13.66;100.00
65758;BME280;52495;52.208;5.158;2023-05-11T05:53:58;101441.94;;;13.66;100.00
65758;BME280;52495;52.208;5.158;2023-05-11T05:56:26;101449.66;;;13.70;100.00
65758;BME280;52495;52.208;5.158;2023-05-11T05:58:53;101449.56;;;13.74;100.00
65758;BME280;52495;52.208;5.158;2023-05-11T06:01:20;101458.22;;;13.75;100.00
65758;BME280;52495;52.208;5.158;2023-05-11T06:03:48;101461.63;;;13.77;100.00
65758;BME280;52495;52.208;5.158;2023-05-11T06:06:16;101463.31;;;13.78;100.00
65758;BME280;52495;52.208;5.158;2023-05-11T06:08:43;101465.88;;;13.81;100.00
65758;BME280;52495;52.208;5.158;2023-05-11T06:11:10;101466.69;;;13.83;100.00
65758;BME280;52495;52.208;5.158;2023-05-11T06:13:38;101465.03;;;13.80;100.00
65758;BME280;52495;52.208;5.158;2023-05-11T06:16:05;101464.09;;;13.83;100.00
65758;BME280;52495;52.208;5.158;2023-05-11T06:18:33;101460.66;;;13.83;100.00
65758;BME280;52495;52.208;5.158;2023-05-11T06:21:02;101464.09;;;13.83;100.00
65758;BME280;52495;52.208;5.158;2023-05-11T06:23:30;101470.13;;;13.85;100.00
65758;BME280;52495;52.208;5.158;2023-05-11T06:25:57;101470.88;;;13.90;100.00
65758;BME280;52495;52.208;5.158;2023-05-11T06:28:25;101466.47;;;13.94;100.00
65758;BME280;52495;52.208;5.158;2023-05-11T06:30:58;101465.59;;;13.95;100.00
65758;BME280;52495;52.208;5.158;2023-05-11T06:33:28;101463.81;;;13.97;100.00
65758;BME280;52495;52.208;5.158;2023-05-11T06:35:55;101469.72;;;14.04;100.00
65758;BME280;52495;52.208;5.158;2023-05-11T06:38:22;101465.31;;;14.09;100.00
65758;BME280;52495;52.208;5.158;2023-05-11T06:40:51;101472.09;;;14.15;100.00
65758;BME280;52495;52.208;5.158;2023-05-11T06:43:18;101474.59;;;14.18;100.00
65758;BME280;52495;52.208;5.158;2023-05-11T06:45:47;101471.06;;;14.22;100.00
65758;BME280;52495;52.208;5.158;2023-05-11T06:48:15;101469.28;;;14.24;100.00
65758;BME280;52495;52.208;5.158;2023-05-11T06:50:42;101476.13;;;14.26;100.00
65758;BME280;52495;52.208;5.158;2023-05-11T06:53:11;101478.72;;;14.28;100.00
65758;BME280;52495;52.208;5.158;2023-05-11T06:55:38;101475.19;;;14.31;100.00
65758;BME280;52495;52.208;5.158;2023-05-11T06:58:05;101483.78;;;14.34;100.00
65758;BME280;52495;52.208;5.158;2023-05-11T07:00:32;101478.31;;;14.45;100.00
65758;BME280;52495;52.208;5.158;2023-05-11T07:02:59;101475.88;;;14.39;100.00
65758;BME280;52495;52.208;5.158;2023-05-11T07:05:27;101478.41;;;14.42;100.00
65758;BME280;52495;52.208;5.158;2023-05-11T07:07:54;101475.66;;;14.48;100.00
65758;BME280;52495;52.208;5.158;2023-05-11T07:10:21;101477.28;;;14.52;100.00
65758;BME280;52495;52.208;5.158;2023-05-11T07:12:48;101477.16;;;14.59;100.00
65758;BME280;52495;52.208;5.158;2023-05-11T07:15:15;101474.41;;;14.65;100.00
65758;BME280;52495;52.208;5.158;2023-05-11T07:17:42;101465.63;;;14.70;100.00
65758;BME280;52495;52.208;5.158;2023-05-11T07:20:11;101469.13;;;14.69;98.42
65758;BME280;52495;52.208;5.158;2023-05-11T07:22:39;101475.94;;;14.75;97.90
65758;BME280;52495;52.208;5.158;2023-05-11T07:25:07;101468.91;;;14.79;97.10
65758;BME280;52495;52.208;5.158;2023-05-11T07:27:35;101472.31;;;14.81;97.30
65758;BME280;52495;52.208;5.158;2023-05-11T07:30:02;101476.66;;;14.80;96.72
65758;BME280;52495;52.208;5.158;2023-05-11T07:32:29;101472.25;;;14.84;96.21
65758;BME280;52495;52.208;5.158;2023-05-11T07:34:55;101479.94;;;14.89;95.91
65758;BME280;52495;52.208;5.158;2023-05-11T07:37:22;101472.06;;;14.92;95.48
65758;BME280;52495;52.208;5.158;2023-05-11T07:39:51;101477.06;;;14.99;95.46
65758;BME280;52495;52.208;5.158;2023-05-11T07:42:18;101477.88;;;15.01;95.10
65758;BME280;52495;52.208;5.158;2023-05-11T07:44:45;101479.53;;;15.04;94.75
65758;BME280;52495;52.208;5.158;2023-05-11T07:47:12;101488.09;;;15.09;94.47
65758;BME280;52495;52.208;5.158;2023-05-11T07:49:39;101471.69;;;15.06;93.96
65758;BME280;52495;52.208;5.158;2023-05-11T07:52:06;101480.03;;;15.18;93.83
65758;BME280;52495;52.208;5.158;2023-05-11T07:54:32;101485.09;;;15.23;91.88
65758;BME280;52495;52.208;5.158;2023-05-11T07:57:01;101476.38;;;15.26;92.21
65758;BME280;52495;52.208;5.158;2023-05-11T07:59:28;101477.06;;;15.32;92.51
65758;BME280;52495;52.208;5.158;2023-05-11T08:01:55;101479.97;;;15.20;91.31
65758;BME280;52495;52.208;5.158;2023-05-11T08:04:22;101478.16;;;15.24;91.71
65758;BME280;52495;52.208;5.158;2023-05-11T08:06:49;101475.75;;;15.49;91.15
65758;BME280;52495;52.208;5.158;2023-05-11T08:09:16;101487.41;;;15.36;90.25
65758;BME280;52495;52.208;5.158;2023-05-11T08:11:43;101495.59;;;15.53;89.66
65758;BME280;52495;52.208;5.158;2023-05-11T08:14:11;101484.97;;;15.61;89.54
65758;BME280;52495;52.208;5.158;2023-05-11T08:16:38;101485.88;;;15.60;88.94
65758;BME280;52495;52.208;5.158;2023-05-11T08:19:05;101482.25;;;15.64;87.98
65758;BME280;52495;52.208;5.158;2023-05-11T08:21:32;101482.03;;;15.73;87.93
65758;BME280;52495;52.208;5.158;2023-05-11T08:23:59;101480.38;;;15.71;86.30
65758;BME280;52495;52.208;5.158;2023-05-11T08:26:26;101477.94;;;15.63;85.35
65758;BME280;52495;52.208;5.158;2023-05-11T08:28:53;101478.88;;;15.62;85.17
65758;BME280;52495;52.208;5.158;2023-05-11T08:31:27;101477.03;;;15.66;85.25
65758;BME280;52495;52.208;5.158;2023-05-11T08:34:00;101472.59;;;15.69;85.86
65758;BME280;52495;52.208;5.158;2023-05-11T08:36:27;101480.03;;;15.82;85.80
65758;BME280;52495;52.208;5.158;2023-05-11T08:38:53;101480.78;;;15.88;85.33
65758;BME280;52495;52.208;5.158;2023-05-11T08:41:21;101482.34;;;15.94;85.29
65758;BME280;52495;52.208;5.158;2023-05-11T08:43:48;101476.25;;;15.93;84.24
65758;BME280;52495;52.208;5.158;2023-05-11T08:46:21;101476.25;;;15.93;83.02
65758;BME280;52495;52.208;5.158;2023-05-11T08:48:51;101468.34;;;15.97;83.09
65758;BME280;52495;52.208;5.158;2023-05-11T08:51:18;101472.66;;;15.98;82.36
65758;BME280;52495;52.208;5.158;2023-05-11T08:53:45;101482.84;;;16.05;81.92
65758;BME280;52495;52.208;5.158;2023-05-11T08:56:12;101482.56;;;16.15;81.78
65758;BME280;52495;52.208;5.158;2023-05-11T08:58:41;101482.31;;;16.24;80.88
65758;BME280;52495;52.208;5.158;2023-05-11T09:01:09;101481.63;;;16.17;80.57
65758;BME280;52495;52.208;5.158;2023-05-11T09:03:38;101485.31;;;16.10;81.29
65758;BME280;52495;52.208;5.158;2023-05-11T09:06:06;101486.59;;;15.97;80.57
65758;BME280;52495;52.208;5.158;2023-05-11T09:08:34;101475.34;;;15.95;81.01
65758;BME280;52495;52.208;5.158;2023-05-11T09:11:02;101481.00;;;16.09;80.73
65758;BME280;52495;52.208;5.158;2023-05-11T09:13:30;101479.59;;;15.97;81.98
65758;BME280;52495;52.208;5.158;2023-05-11T09:15:57;101475.28;;;15.98;82.20
65758;BME280;52495;52.208;5.158;2023-05-11T09:18:25;101482.69;;;16.12;81.85
65758;BME280;52495;52.208;5.158;2023-05-11T09:20:54;101480.91;;;16.12;82.84
65758;BME280;52495;52.208;5.158;2023-05-11T09:23:23;101487.03;;;16.11;82.02
65758;BME280;52495;52.208;5.158;2023-05-11T09:25:50;101486.22;;;16.09;82.03
65758;BME280;52495;52.208;5.158;2023-05-11T09:28:20;101482.72;;;16.10;82.88
65758;BME280;52495;52.208;5.158;2023-05-11T09:30:47;101491.91;;;16.22;82.63
65758;BME280;52495;52.208;5.158;2023-05-11T09:33:20;101475.13;;;16.02;83.63
65758;BME280;52495;52.208;5.158;2023-05-11T09:35:48;101463.38;;;15.89;83.42
65758;BME280;52495;52.208;5.158;2023-05-11T09:38:16;101477.00;;;15.97;84.83
65758;BME280;52495;52.208;5.158;2023-05-11T09:40:53;101490.13;;;16.24;82.57
65758;BME280;52495;52.208;5.158;2023-05-11T09:43:22;101485.00;;;16.21;83.18
65758;BME280;52495;52.208;5.158;2023-05-11T09:45:51;101490.16;;;15.92;81.70
65758;BME280;52495;52.208;5.158;2023-05-11T09:48:26;101483.50;;;16.14;83.27
65758;BME280;52495;52.208;5.158;2023-05-11T09:51:01;101473.00;;;16.15;85.40
65758;BME280;52495;52.208;5.158;2023-05-11T09:53:38;101472.94;;;16.17;86.42
65758;BME280;52495;52.208;5.158;2023-05-11T09:56:08;101493.09;;;16.12;87.08
65758;BME280;52495;52.208;5.158;2023-05-11T09:58:44;101492.81;;;15.59;86.80
65758;BME280;52495;52.208;5.158;2023-05-11T10:01:12;101496.19;;;15.30;87.49
65758;BME280;52495;52.208;5.158;2023-05-11T10:03:45;101489.84;;;15.73;87.95
65758;BME280;52495;52.208;5.158;2023-05-11T10:06:12;101497.28;;;15.87;87.75
65758;BME280;52495;52.208;5.158;2023-05-11T10:08:40;101501.09;;;15.74;89.47
65758;BME280;52495;52.208;5.158;2023-05-11T10:11:07;101507.47;;;15.63;90.36
65758;BME280;52495;52.208;5.158;2023-05-11T10:13:35;101490.97;;;15.63;90.82
65758;BME280;52495;52.208;5.158;2023-05-11T10:16:03;101492.50;;;15.70;90.70
65758;BME280;52495;52.208;5.158;2023-05-11T10:18:32;101495.25;;;15.66;91.78
65758;BME280;52495;52.208;5.158;2023-05-11T10:20:59;101498.22;;;15.53;94.14
65758;BME280;52495;52.208;5.158;2023-05-11T10:23:26;101487.88;;;15.50;94.64
65758;BME280;52495;52.208;5.158;2023-05-11T10:25:54;101495.00;;;15.43;94.85
65758;BME280;52495;52.208;5.158;2023-05-11T10:28:22;101488.97;;;15.41;96.33
65758;BME280;52495;52.208;5.158;2023-05-11T10:30:50;101499.31;;;15.10;97.02
65758;BME280;52495;52.208;5.158;2023-05-11T10:33:17;101496.44;;;15.21;97.07
65758;BME280;52495;52.208;5.158;2023-05-11T10:35:45;101510.22;;;15.24;96.12
65758;BME280;52495;52.208;5.158;2023-05-11T10:38:12;101513.91;;;15.15;96.85
65758;BME280;52495;52.208;5.158;2023-05-11T10:40:41;101517.53;;;15.10;97.28
65758;BME280;52495;52.208;5.158;2023-05-11T10:43:36;101515.59;;;15.18;98.38
65758;BME280;52495;52.208;5.158;2023-05-11T10:46:22;101505.34;;;15.12;98.09
65758;BME280;52495;52.208;5.158;2023-05-11T10:49:08;101510.34;;;14.85;98.12
65758;BME280;52495;52.208;5.158;2023-05-11T10:51:49;101507.13;;;14.74;98.79
65758;BME280;52495;52.208;5.158;2023-05-11T10:54:32;101505.56;;;14.68;100.00
65758;BME280;52495;52.208;5.158;2023-05-11T10:57:25;101512.47;;;14.67;99.93
65758;BME280;52495;52.208;5.158;2023-05-11T11:00:23;101521.28;;;14.60;100.00
65758;BME280;52495;52.208;5.158;2023-05-11T11:03:08;101517.66;;;14.69;100.00
65758;BME280;52495;52.208;5.158;2023-05-11T11:05:35;101523.69;;;14.71;97.84
65758;BME280;52495;52.208;5.158;2023-05-11T11:08:04;101524.66;;;14.64;97.04
65758;BME280;52495;52.208;5.158;2023-05-11T11:10:34;101528.38;;;14.53;98.02
65758;BME280;52495;52.208;5.158;2023-05-11T11:13:03;101528.41;;;14.52;98.76
65758;BME280;52495;52.208;5.158;2023-05-11T11:18:35;101520.53;;;14.56;100.00
65758;BME280;52495;52.208;5.158;2023-05-11T11:21:02;101509.31;;;14.54;100.00
65758;BME280;52495;52.208;5.158;2023-05-11T11:23:46;101514.44;;;14.56;100.00
65758;BME280;52495;52.208;5.158;2023-05-11T11:26:16;101501.38;;;14.59;100.00
65758;BME280;52495;52.208;5.158;2023-05-11T11:29:06;101509.25;;;14.56;100.00
65758;BME280;52495;52.208;5.158;2023-05-11T11:31:33;101514.50;;;14.54;98.60
65758;BME280;52495;52.208;5.158;2023-05-11T11:34:32;101510.97;;;14.57;100.00
65758;BME280;52495;52.208;5.158;2023-05-11T11:37:04;101517.66;;;14.69;100.00
65758;BME280;52495;52.208;5.158;2023-05-11T11:39:54;101513.22;;;14.74;100.00
65758;BME280;52495;52.208;5.158;2023-05-11T11:42:36;101507.81;;;14.82;100.00
65758;BME280;52495;52.208;5.158;2023-05-11T11:45:25;101518.28;;;14.79;100.00
65758;BME280;52495;52.208;5.158;2023-05-11T11:48:10;101506.69;;;14.94;100.00
65758;BME280;52495;52.208;5.158;2023-05-11T11:50:46;101504.88;;;14.96;100.00
65758;BME280;52495;52.208;5.158;2023-05-11T11:56:40;101508.53;;;14.89;100.00
65758;BME280;52495;52.208;5.158;2023-05-11T11:59:09;101510.13;;;14.94;100.00
65758;BME280;52495;52.208;5.158;2023-05-11T12:01:38;101513.50;;;14.98;100.00
65758;BME280;52495;52.208;5.158;2023-05-11T12:07:08;101508.47;;;14.90;100.00
65758;BME280;52495;52.208;5.158;2023-05-11T12:09:38;101510.94;;;14.96;100.00
65758;BME280;52495;52.208;5.158;2023-05-11T12:12:07;101515.13;;;15.02;100.00
65758;BME280;52495;52.208;5.158;2023-05-11T12:14:34;101515.75;;;15.12;100.00
65758;BME280;52495;52.208;5.158;2023-05-11T12:17:06;101516.38;;;15.22;100.00
65758;BME280;52495;52.208;5.158;2023-05-11T12:19:38;101514.31;;;15.35;100.00
65758;BME280;52495;52.208;5.158;2023-05-11T12:22:06;101509.88;;;15.38;100.00
65758;BME280;52495;52.208;5.158;2023-05-11T12:24:36;101515.75;;;15.45;100.00
65758;BME280;52495;52.208;5.158;2023-05-11T12:27:04;101502.63;;;15.50;100.00
65758;BME280;52495;52.208;5.158;2023-05-11T12:29:31;101507.75;;;15.53;100.00
65758;BME280;52495;52.208;5.158;2023-05-11T12:31:58;101497.13;;;15.60;100.00
65758;BME280;52495;52.208;5.158;2023-05-11T12:34:25;101501.44;;;15.61;100.00
65758;BME280;52495;52.208;5.158;2023-05-11T12:36:52;101500.47;;;15.64;100.00
65758;BME280;52495;52.208;5.158;2023-05-11T12:39:21;101496.97;;;15.67;100.00
65758;BME280;52495;52.208;5.158;2023-05-11T12:41:50;101494.94;;;15.76;100.00
65758;BME280;52495;52.208;5.158;2023-05-11T12:44:18;101492.91;;;15.88;100.00
65758;BME280;52495;52.208;5.158;2023-05-11T12:46:47;101496.38;;;15.88;97.91
65758;BME280;52495;52.208;5.158;2023-05-11T12:49:18;101495.34;;;15.94;97.27
65758;BME280;52495;52.208;5.158;2023-05-11T12:51:49;101499.56;;;15.98;97.95
65758;BME280;52495;52.208;5.158;2023-05-11T12:54:25;101499.44;;;16.03;96.60
65758;BME280;52495;52.208;5.158;2023-05-11T12:56:53;101503.59;;;16.08;94.45
65758;BME280;52495;52.208;5.158;2023-05-11T12:59:31;101505.91;;;16.19;96.70
65758;BME280;52495;52.208;5.158;2023-05-11T13:02:10;101502.34;;;16.22;96.16
65758;BME280;52495;52.208;5.158;2023-05-11T13:04:38;101514.97;;;16.34;96.54